Time;durP1;ratioP1;P1;durP2;ratioP2;P2;SDS_P1;SDS_P2;PMS_P1;PMS_P2;Temp;Humidity;BMP_temperature;BMP_pressure;BME280_temperature;BME280_humidity;BME280_pressure;Samples;Min_cycle;Max_cycle;Signal;HPM_P1;HPM_P2
2022/03/13 00:02:03;;;;;;;38.37;34.00;;;9.60;99.90;;;;;;4993241;28;20533;-68
2022/03/13 00:04:32;;;;;;;42.57;35.67;;;9.50;99.90;;;;;;4999694;28;21071;-72
2022/03/13 00:06:59;;;;;;;43.43;34.10;;;9.50;99.90;;;;;;4999999;28;20465;-71
2022/03/13 00:09:26;;;;;;;43.30;34.27;;;9.50;99.90;;;;;;4998506;28;20489;-69
2022/03/13 00:11:53;;;;;;;34.23;30.63;;;9.40;99.90;;;;;;5002736;28;20506;-69
2022/03/13 00:14:24;;;;;;;36.13;32.37;;;9.30;99.90;;;;;;4999878;28;20474;-70
2022/03/13 00:16:51;;;;;;;34.33;30.27;;;9.30;99.90;;;;;;5003609;28;21014;-71
2022/03/13 00:19:22;;;;;;;40.33;31.70;;;9.30;99.90;;;;;;5001885;28;20499;-70
2022/03/13 00:21:54;;;;;;;32.30;28.93;;;9.20;99.90;;;;;;5000035;28;20480;-70
2022/03/13 00:24:22;;;;;;;34.30;30.77;;;9.10;99.90;;;;;;5000523;28;20543;-70
2022/03/13 00:26:52;;;;;;;41.67;29.50;;;9.10;99.90;;;;;;5003618;28;20981;-73
2022/03/13 00:29:19;;;;;;;38.40;29.80;;;9.00;99.90;;;;;;5005976;28;20496;-69
2022/03/13 00:31:46;;;;;;;32.53;28.00;;;9.00;99.90;;;;;;5007265;28;20519;-70
2022/03/13 00:34:13;;;;;;;31.73;28.40;;;9.10;99.90;;;;;;4995954;28;20462;-72
2022/03/13 00:36:40;;;;;;;34.97;29.00;;;9.10;99.90;;;;;;4996975;28;20832;-70
2022/03/13 00:39:10;;;;;;;44.80;28.77;;;9.00;99.90;;;;;;5004501;28;20474;-70
2022/03/13 00:41:37;;;;;;;30.77;27.57;;;9.00;99.90;;;;;;5000707;28;20473;-72
2022/03/13 00:44:05;;;;;;;30.60;27.37;;;9.10;99.90;;;;;;4999241;28;20467;-72
2022/03/13 00:46:32;;;;;;;29.10;25.13;;;9.10;99.90;;;;;;5007368;28;20453;-70
2022/03/13 00:49:00;;;;;;;30.00;26.43;;;9.10;99.90;;;;;;5005372;28;20545;-70
2022/03/13 00:51:27;;;;;;;29.37;26.47;;;9.10;99.90;;;;;;5001358;28;20492;-72
2022/03/13 00:53:54;;;;;;;31.13;27.93;;;9.10;99.90;;;;;;5003792;28;20466;-69
2022/03/13 00:56:22;;;;;;;29.80;26.60;;;9.10;99.90;;;;;;5001736;28;20497;-70
2022/03/13 00:58:50;;;;;;;28.90;25.90;;;9.10;99.90;;;;;;5000538;28;20467;-70
2022/03/13 01:01:18;;;;;;;29.73;26.53;;;9.10;99.90;;;;;;5013587;28;20460;-70
2022/03/13 01:03:50;;;;;;;28.73;25.63;;;9.10;99.90;;;;;;5002704;28;20493;-69
2022/03/13 01:06:18;;;;;;;29.90;26.80;;;9.10;99.90;;;;;;4995183;28;20465;-71
2022/03/13 01:09:00;;;;;;;32.90;27.30;;;9.10;99.90;;;;;;4999269;28;20450;-69
2022/03/13 01:11:28;;;;;;;30.20;26.97;;;9.10;99.90;;;;;;5000116;28;20489;-68
2022/03/13 01:13:56;;;;;;;30.53;27.30;;;9.10;99.90;;;;;;5006726;28;20964;-68
2022/03/13 01:16:26;;;;;;;31.97;28.80;;;9.10;99.90;;;;;;5003993;28;20468;-69
2022/03/13 01:18:56;;;;;;;29.50;26.60;;;9.10;99.90;;;;;;5002102;28;20469;-71
2022/03/13 01:21:23;;;;;;;28.33;25.10;;;9.00;99.90;;;;;;5003724;28;20472;-69
2022/03/13 01:24:19;;;;;;;28.90;25.93;;;9.00;99.90;;;;;;5004742;28;20485;-71
2022/03/13 01:26:54;;;;;;;29.53;25.00;;;9.10;99.90;;;;;;5000073;28;20465;-71
2022/03/13 01:29:20;;;;;;;29.97;26.87;;;9.10;99.90;;;;;;5001919;28;20481;-69
2022/03/13 01:31:49;;;;;;;29.43;26.50;;;9.10;99.90;;;;;;5012033;28;20466;-70
2022/03/13 01:34:44;;;;;;;29.13;25.80;;;9.00;99.90;;;;;;4997137;28;20471;-72
2022/03/13 01:37:19;;;;;;;28.90;25.73;;;8.90;99.90;;;;;;5001311;28;21022;-70
2022/03/13 01:39:48;;;;;;;32.07;26.13;;;8.90;99.90;;;;;;4997247;28;20463;-69
2022/03/13 01:42:16;;;;;;;29.73;26.67;;;8.90;99.90;;;;;;4998640;28;20472;-68
2022/03/13 01:44:43;;;;;;;29.93;27.00;;;8.80;99.90;;;;;;5003322;28;20839;-69
2022/03/13 01:47:10;;;;;;;29.17;26.07;;;8.70;99.90;;;;;;5008574;28;20469;-69
2022/03/13 01:49:37;;;;;;;28.53;25.80;;;8.60;99.90;;;;;;5001840;28;20492;-70
2022/03/13 01:52:05;;;;;;;28.03;25.43;;;8.50;99.90;;;;;;5000241;28;20462;-71
2022/03/13 01:54:31;;;;;;;30.13;26.73;;;8.50;99.90;;;;;;4999507;28;20464;-69
2022/03/13 01:57:00;;;;;;;28.37;25.53;;;8.40;99.90;;;;;;5004584;28;20821;-69
2022/03/13 01:59:29;;;;;;;27.87;25.00;;;8.40;99.90;;;;;;5003549;28;20469;-73
2022/03/13 02:01:57;;;;;;;29.10;26.13;;;8.30;99.90;;;;;;5000742;28;20495;-69
2022/03/13 02:04:27;;;;;;;38.47;26.93;;;8.30;99.90;;;;;;5003666;28;20542;-71
2022/03/13 02:06:55;;;;;;;33.63;26.70;;;8.20;99.90;;;;;;4999570;28;20505;-69
2022/03/13 02:09:22;;;;;;;30.90;27.47;;;8.10;99.90;;;;;;4992637;28;20466;-70
2022/03/13 02:11:51;;;;;;;38.23;26.70;;;7.90;99.90;;;;;;5004864;28;20472;-69
2022/03/13 02:14:22;;;;;;;40.03;27.80;;;7.80;99.90;;;;;;5000910;28;20466;-69
2022/03/13 02:16:53;;;;;;;33.57;27.77;;;7.70;99.90;;;;;;4998795;28;20505;-69
2022/03/13 02:19:20;;;;;;;34.43;27.50;;;7.60;99.90;;;;;;5001664;28;20496;-70
2022/03/13 02:21:51;;;;;;;31.13;28.03;;;7.60;99.90;;;;;;5006699;28;20472;-69
2022/03/13 02:24:23;;;;;;;30.23;26.77;;;7.50;99.90;;;;;;4998586;28;20465;-70
2022/03/13 02:27:02;;;;;;;33.90;29.20;;;7.40;99.90;;;;;;5000991;28;20461;-69
2022/03/13 02:29:30;;;;;;;32.60;28.47;;;7.40;99.90;;;;;;4995625;28;20547;-72
2022/03/13 02:31:58;;;;;;;30.33;27.13;;;7.30;99.90;;;;;;4999106;28;20500;-69
2022/03/13 02:34:25;;;;;;;30.00;26.83;;;7.20;99.90;;;;;;4998611;28;20466;-69
2022/03/13 02:37:02;;;;;;;30.07;26.87;;;7.10;99.90;;;;;;5000012;28;20588;-70
2022/03/13 02:39:36;;;;;;;30.90;26.90;;;7.10;99.90;;;;;;5001266;28;20450;-70
2022/03/13 02:42:07;;;;;;;31.93;28.40;;;7.00;99.90;;;;;;5001701;28;20460;-70
2022/03/13 02:44:35;;;;;;;31.20;26.77;;;6.90;99.90;;;;;;5001596;28;20461;-73
2022/03/13 02:47:04;;;;;;;29.97;26.83;;;6.90;99.90;;;;;;5001587;28;20464;-72
2022/03/13 02:49:33;;;;;;;29.37;26.37;;;6.80;99.90;;;;;;5001703;28;20494;-72
2022/03/13 02:52:04;;;;;;;34.57;27.93;;;6.80;99.90;;;;;;4998512;28;20559;-69
2022/03/13 02:54:32;;;;;;;29.23;26.30;;;6.70;99.90;;;;;;4997393;28;20993;-70
2022/03/13 02:57:00;;;;;;;30.80;27.20;;;6.70;99.90;;;;;;4999674;28;20467;-71
2022/03/13 02:59:28;;;;;;;28.57;25.70;;;6.70;99.90;;;;;;4997984;28;20472;-69
2022/03/13 03:01:56;;;;;;;31.13;27.97;;;6.70;99.90;;;;;;4994097;28;20474;-69
2022/03/13 03:04:24;;;;;;;31.00;27.40;;;6.70;99.90;;;;;;4999305;28;20463;-69
2022/03/13 03:06:56;;;;;;;32.10;27.67;;;6.70;99.90;;;;;;5000422;28;20519;-69
2022/03/13 03:09:24;;;;;;;29.63;25.40;;;6.70;99.90;;;;;;4996777;28;20462;-71
2022/03/13 03:11:53;;;;;;;34.43;25.53;;;6.70;99.90;;;;;;4995782;28;20498;-71
2022/03/13 03:14:21;;;;;;;35.50;25.03;;;6.80;99.90;;;;;;4997256;28;20475;-69
2022/03/13 03:16:47;;;;;;;29.20;25.63;;;6.80;99.90;;;;;;5005723;28;20552;-70
2022/03/13 03:19:15;;;;;;;29.87;25.37;;;7.00;99.90;;;;;;5003105;28;20477;-69
2022/03/13 03:21:42;;;;;;;36.63;27.00;;;7.00;99.90;;;;;;4992757;28;20497;-72
2022/03/13 03:24:13;;;;;;;28.00;25.20;;;7.00;99.90;;;;;;4998490;28;20466;-69
2022/03/13 03:26:40;;;;;;;27.70;24.87;;;7.00;99.90;;;;;;4998880;28;20474;-72
2022/03/13 03:29:09;;;;;;;29.43;25.13;;;7.20;99.90;;;;;;4998917;28;21014;-69
2022/03/13 03:31:41;;;;;;;32.47;24.77;;;7.30;99.90;;;;;;4997005;28;20496;-70
2022/03/13 03:34:10;;;;;;;37.50;26.03;;;7.20;99.90;;;;;;5005066;28;20508;-70
2022/03/13 03:36:41;;;;;;;35.83;26.70;;;7.30;99.90;;;;;;4996555;28;20493;-69
2022/03/13 03:39:08;;;;;;;33.20;25.33;;;7.30;99.90;;;;;;4989877;28;20466;-73
2022/03/13 03:41:35;;;;;;;28.47;25.47;;;7.30;99.90;;;;;;4997650;28;20464;-69
2022/03/13 03:44:02;;;;;;;28.50;24.30;;;7.40;99.90;;;;;;5002906;28;20471;-70
2022/03/13 03:46:31;;;;;;;27.17;24.37;;;7.40;99.90;;;;;;5012063;28;20568;-69
2022/03/13 03:48:57;;;;;;;26.83;24.20;;;7.50;99.90;;;;;;5000503;28;20472;-72
2022/03/13 03:51:24;;;;;;;27.33;24.70;;;7.60;99.30;;;;;;4997269;28;20524;-69
2022/03/13 03:53:52;;;;;;;26.77;24.07;;;7.60;98.70;;;;;;4997205;28;20465;-70
2022/03/13 03:56:19;;;;;;;29.33;24.90;;;7.60;98.20;;;;;;5000055;28;20470;-70
2022/03/13 03:58:45;;;;;;;27.67;24.80;;;7.70;98.50;;;;;;5000369;28;20543;-73
2022/03/13 04:01:13;;;;;;;30.90;25.20;;;7.70;98.70;;;;;;5007356;28;20496;-70
2022/03/13 04:03:41;;;;;;;35.63;23.30;;;7.70;98.70;;;;;;5006864;28;20479;-70
2022/03/13 04:06:08;;;;;;;29.60;24.60;;;7.70;98.10;;;;;;5000499;28;20465;-69
2022/03/13 04:08:35;;;;;;;30.00;25.03;;;7.80;97.80;;;;;;5002176;28;20466;-70
2022/03/13 04:11:02;;;;;;;28.57;24.47;;;7.70;97.60;;;;;;5003826;28;20468;-70
2022/03/13 04:13:29;;;;;;;27.60;24.73;;;7.70;97.70;;;;;;5000000;28;20456;-70
2022/03/13 04:15:56;;;;;;;26.50;23.90;;;7.60;98.00;;;;;;5002593;28;20460;-70
2022/03/13 04:18:23;;;;;;;35.40;25.30;;;7.60;97.70;;;;;;5002236;28;20461;-72
2022/03/13 04:20:51;;;;;;;25.53;23.03;;;7.60;97.20;;;;;;5003573;28;20489;-70
2022/03/13 04:23:18;;;;;;;25.80;23.23;;;7.70;96.40;;;;;;5004840;28;20462;-71
2022/03/13 04:25:45;;;;;;;25.43;23.17;;;7.70;96.00;;;;;;5005476;28;20477;-72
2022/03/13 04:28:12;;;;;;;27.60;23.60;;;7.70;95.50;;;;;;4999689;28;20469;-72
2022/03/13 04:30:39;;;;;;;25.17;22.57;;;7.80;95.40;;;;;;4998860;28;20613;-70
2022/03/13 04:33:07;;;;;;;24.37;21.97;;;7.70;94.80;;;;;;4999010;28;20466;-70
2022/03/13 04:35:34;;;;;;;26.13;23.80;;;7.80;94.90;;;;;;5005087;28;20458;-70
2022/03/13 04:38:03;;;;;;;26.03;23.63;;;7.70;94.70;;;;;;5007906;28;20861;-71
2022/03/13 04:40:31;;;;;;;32.93;24.23;;;7.80;94.90;;;;;;5002581;28;20489;-72
2022/03/13 04:42:58;;;;;;;26.60;23.80;;;7.90;95.10;;;;;;5001735;28;20473;-70
2022/03/13 04:45:26;;;;;;;27.00;24.30;;;7.80;94.50;;;;;;5002214;28;20553;-70
2022/03/13 04:47:52;;;;;;;27.00;24.47;;;7.90;94.70;;;;;;5004583;28;20507;-71
2022/03/13 04:50:20;;;;;;;26.17;23.60;;;7.90;95.00;;;;;;5004826;28;20825;-71
2022/03/13 04:52:47;;;;;;;27.10;24.43;;;7.90;94.70;;;;;;5002994;28;20461;-72
2022/03/13 04:55:18;;;;;;;27.27;24.50;;;8.00;95.30;;;;;;4997152;28;20458;-70
2022/03/13 04:57:45;;;;;;;28.97;26.00;;;7.90;95.00;;;;;;4999667;28;21082;-72
2022/03/13 05:00:12;;;;;;;32.03;24.73;;;7.90;95.30;;;;;;4993921;28;20468;-71
2022/03/13 05:02:39;;;;;;;29.97;24.73;;;7.90;95.00;;;;;;4987282;28;20739;-71
2022/03/13 05:05:08;;;;;;;26.93;24.33;;;7.80;94.40;;;;;;4975206;28;20654;-71
2022/03/13 05:07:38;;;;;;;28.33;23.53;;;7.80;94.60;;;;;;4973344;28;21085;-72
2022/03/13 05:10:06;;;;;;;31.70;24.53;;;7.80;94.50;;;;;;4973058;28;20824;-70
2022/03/13 05:12:35;;;;;;;27.67;25.00;;;7.80;94.60;;;;;;4972229;28;20854;-71
2022/03/13 05:15:01;;;;;;;34.17;25.37;;;7.80;94.60;;;;;;4973599;28;20465;-71
2022/03/13 05:17:28;;;;;;;27.70;24.87;;;7.70;94.70;;;;;;4973012;28;21080;-72
2022/03/13 05:19:55;;;;;;;27.20;24.40;;;7.70;94.50;;;;;;4973611;28;20469;-71
2022/03/13 05:22:22;;;;;;;28.17;24.20;;;7.70;94.10;;;;;;4973483;28;20583;-70
2022/03/13 05:24:50;;;;;;;26.40;23.50;;;7.70;93.60;;;;;;4973415;28;20487;-71
2022/03/13 05:27:16;;;;;;;27.93;24.23;;;7.70;93.40;;;;;;4973589;28;20550;-71
2022/03/13 05:29:44;;;;;;;27.13;24.47;;;7.80;93.10;;;;;;4973072;28;21414;-72
2022/03/13 05:32:12;;;;;;;30.10;23.87;;;7.80;92.80;;;;;;4974839;28;20473;-72
2022/03/13 05:34:39;;;;;;;27.03;23.87;;;7.80;92.80;;;;;;4974043;28;20469;-71
2022/03/13 05:37:07;;;;;;;29.50;26.53;;;7.70;92.60;;;;;;4972673;28;20497;-71
2022/03/13 05:39:35;;;;;;;36.23;25.40;;;7.70;92.40;;;;;;4972949;28;20559;-71
2022/03/13 05:42:05;;;;;;;26.47;23.77;;;7.70;92.70;;;;;;4972005;28;20512;-71
2022/03/13 05:44:33;;;;;;;29.10;24.53;;;7.70;91.90;;;;;;4972713;28;20473;-71
2022/03/13 05:47:01;;;;;;;25.90;23.50;;;7.60;91.60;;;;;;4972879;28;20470;-71
2022/03/13 05:49:28;;;;;;;30.83;24.37;;;7.70;91.70;;;;;;4972808;28;21047;-71
2022/03/13 05:51:56;;;;;;;27.17;24.47;;;7.70;91.80;;;;;;4972647;28;20481;-71
2022/03/13 05:54:23;;;;;;;34.70;24.47;;;7.70;92.00;;;;;;4972197;28;20517;-70
2022/03/13 05:56:50;;;;;;;27.37;24.63;;;7.70;91.70;;;;;;4971926;28;20553;-71
2022/03/13 05:59:17;;;;;;;39.20;24.70;;;7.60;92.50;;;;;;4972566;28;20476;-71
2022/03/13 06:01:44;;;;;;;28.67;24.57;;;7.70;92.70;;;;;;4971527;28;20715;-71
2022/03/13 06:04:13;;;;;;;27.50;24.70;;;7.70;93.20;;;;;;4973178;28;20475;-71
2022/03/13 06:06:40;;;;;;;26.97;24.37;;;7.70;93.20;;;;;;4975619;28;20817;-70
2022/03/13 06:09:07;;;;;;;29.77;23.60;;;7.70;92.80;;;;;;4996918;28;20473;-71
2022/03/13 06:11:34;;;;;;;26.50;23.90;;;7.70;92.40;;;;;;5004308;28;20477;-72
2022/03/13 06:14:01;;;;;;;28.23;25.30;;;7.70;92.30;;;;;;5005120;28;20956;-71
2022/03/13 06:16:28;;;;;;;26.53;23.93;;;7.70;92.00;;;;;;4996273;28;20476;-71
2022/03/13 06:18:55;;;;;;;29.20;23.67;;;7.70;91.80;;;;;;4972319;28;20465;-72
2022/03/13 06:21:23;;;;;;;25.60;23.03;;;7.70;91.80;;;;;;4971886;28;20894;-70
2022/03/13 06:23:50;;;;;;;26.00;23.50;;;7.70;91.50;;;;;;4971988;28;20851;-71
2022/03/13 06:26:17;;;;;;;29.57;23.47;;;7.80;91.40;;;;;;4971881;28;21534;-71
2022/03/13 06:28:44;;;;;;;26.63;23.77;;;7.80;91.20;;;;;;4972345;28;21677;-71
2022/03/13 06:31:12;;;;;;;26.57;23.87;;;7.80;90.90;;;;;;4970998;28;20466;-70
2022/03/13 06:33:38;;;;;;;25.20;22.70;;;7.80;90.90;;;;;;4971432;28;21049;-70
2022/03/13 06:36:05;;;;;;;26.93;23.50;;;7.80;90.40;;;;;;4971085;28;20477;-71
2022/03/13 06:38:34;;;;;;;26.37;24.07;;;7.80;90.20;;;;;;4971021;28;20481;-71
2022/03/13 06:41:00;;;;;;;26.10;23.90;;;7.90;90.00;;;;;;4971383;28;20573;-71
2022/03/13 06:43:27;;;;;;;26.87;24.03;;;7.90;88.70;;;;;;4971298;28;20466;-71
2022/03/13 06:45:54;;;;;;;25.50;23.10;;;7.90;88.30;;;;;;4971551;28;20556;-70
2022/03/13 06:48:21;;;;;;;25.03;22.50;;;7.90;88.50;;;;;;4972064;28;20937;-70
2022/03/13 06:50:48;;;;;;;26.80;23.80;;;7.90;88.50;;;;;;4991138;28;20504;-71
2022/03/13 06:53:15;;;;;;;25.10;22.70;;;7.90;88.10;;;;;;4998801;28;20462;-71
2022/03/13 06:55:44;;;;;;;25.77;22.57;;;8.00;88.60;;;;;;5000644;28;20853;-71
2022/03/13 06:58:11;;;;;;;25.33;22.93;;;8.10;87.70;;;;;;4973945;28;20469;-71
2022/03/13 07:00:38;;;;;;;25.13;22.60;;;8.10;87.70;;;;;;4969392;28;21554;-72
2022/03/13 07:03:04;;;;;;;25.37;22.77;;;8.20;87.70;;;;;;4969501;28;20939;-72
2022/03/13 07:05:31;;;;;;;27.27;24.57;;;8.10;87.20;;;;;;4968879;28;20470;-71
2022/03/13 07:07:58;;;;;;;25.60;22.87;;;8.10;86.60;;;;;;4968884;28;20470;-71
2022/03/13 07:10:25;;;;;;;25.33;22.80;;;8.20;86.90;;;;;;4969029;28;20470;-71
2022/03/13 07:12:56;;;;;;;25.70;23.20;;;8.20;87.30;;;;;;4969822;28;20470;-71
2022/03/13 07:15:23;;;;;;;33.70;24.50;;;8.20;87.20;;;;;;4969843;28;20477;-70
2022/03/13 07:17:51;;;;;;;25.30;22.90;;;8.30;87.60;;;;;;4968495;28;20649;-71
2022/03/13 07:20:18;;;;;;;25.33;23.13;;;8.40;86.30;;;;;;4969784;28;20469;-71
2022/03/13 07:22:46;;;;;;;26.27;23.63;;;8.40;86.20;;;;;;4968566;28;21303;-71
2022/03/13 07:25:13;;;;;;;31.60;25.07;;;8.50;85.20;;;;;;4969446;28;20473;-71
2022/03/13 07:27:40;;;;;;;26.17;23.73;;;8.50;85.10;;;;;;4970478;28;20922;-71
2022/03/13 07:30:12;;;;;;;27.63;24.83;;;8.60;85.50;;;;;;4969073;28;20478;-69
2022/03/13 07:32:40;;;;;;;27.93;25.10;;;8.70;85.70;;;;;;4969146;28;20474;-71
2022/03/13 07:35:07;;;;;;;27.03;23.63;;;8.90;85.40;;;;;;4971685;28;20485;-71
2022/03/13 07:37:35;;;;;;;25.90;23.50;;;8.90;84.40;;;;;;4973152;28;20501;-71
2022/03/13 07:40:02;;;;;;;26.47;23.70;;;9.10;84.20;;;;;;4973280;28;20573;-71
2022/03/13 07:42:29;;;;;;;27.57;24.97;;;9.20;83.40;;;;;;4973185;28;20821;-71
2022/03/13 07:44:56;;;;;;;27.83;25.27;;;9.20;83.00;;;;;;4973789;28;20466;-71
2022/03/13 07:47:25;;;;;;;27.10;23.53;;;9.20;83.40;;;;;;4971467;28;21027;-71
2022/03/13 07:49:52;;;;;;;26.70;24.00;;;9.40;82.50;;;;;;4974052;28;20972;-71
2022/03/13 07:52:19;;;;;;;26.20;22.53;;;9.50;83.10;;;;;;4972403;28;22457;-71
2022/03/13 07:54:46;;;;;;;28.60;25.50;;;9.70;82.90;;;;;;4972042;28;20459;-72
2022/03/13 07:57:13;;;;;;;27.67;25.00;;;9.80;81.50;;;;;;4972731;28;21071;-71
2022/03/13 07:59:40;;;;;;;27.60;24.87;;;10.00;80.80;;;;;;4972789;28;20832;-71
2022/03/13 08:02:07;;;;;;;26.13;23.73;;;10.00;80.40;;;;;;4972386;28;20859;-71
2022/03/13 08:04:35;;;;;;;27.00;24.60;;;10.10;79.90;;;;;;4973943;28;20635;-71
2022/03/13 08:07:03;;;;;;;26.57;24.03;;;10.20;79.60;;;;;;4974151;28;20903;-72
2022/03/13 08:09:29;;;;;;;25.97;23.63;;;10.20;78.80;;;;;;4972527;28;20719;-71
2022/03/13 08:11:56;;;;;;;24.87;22.47;;;10.20;80.00;;;;;;4970196;28;20470;-71
2022/03/13 08:14:24;;;;;;;27.50;24.60;;;10.50;80.00;;;;;;4972343;28;20466;-71
2022/03/13 08:16:51;;;;;;;27.17;24.87;;;10.60;78.40;;;;;;4972093;28;20474;-71
2022/03/13 08:19:18;;;;;;;29.03;25.90;;;10.50;77.90;;;;;;4973188;28;20462;-70
2022/03/13 08:21:46;;;;;;;28.13;25.40;;;10.60;78.10;;;;;;4971580;28;20529;-70
2022/03/13 08:24:15;;;;;;;28.20;25.60;;;10.60;77.60;;;;;;4971886;28;20469;-71
2022/03/13 08:26:42;;;;;;;26.97;23.87;;;10.60;77.40;;;;;;4971434;28;20455;-71
2022/03/13 08:29:10;;;;;;;27.97;25.47;;;10.50;77.70;;;;;;4971853;28;20495;-71
2022/03/13 08:31:38;;;;;;;27.27;24.83;;;10.60;77.40;;;;;;4968949;28;20473;-70
2022/03/13 08:34:08;;;;;;;26.40;24.03;;;10.60;76.50;;;;;;4969424;28;20476;-71
2022/03/13 08:36:35;;;;;;;26.50;24.03;;;10.50;76.90;;;;;;4971083;28;20569;-72
2022/03/13 08:39:04;;;;;;;27.47;24.97;;;10.70;77.30;;;;;;4973500;28;20466;-71
2022/03/13 08:41:30;;;;;;;27.40;24.50;;;10.80;76.90;;;;;;4972364;28;20474;-71
2022/03/13 08:43:58;;;;;;;27.80;23.80;;;11.10;76.80;;;;;;4971412;28;20478;-71
2022/03/13 08:46:25;;;;;;;27.53;24.73;;;11.20;77.30;;;;;;4971215;28;20512;-72
2022/03/13 08:48:51;;;;;;;27.03;24.37;;;11.50;76.80;;;;;;4971805;28;20454;-71
2022/03/13 08:51:21;;;;;;;27.73;25.30;;;11.90;76.40;;;;;;4973228;28;20462;-71
2022/03/13 08:53:48;;;;;;;26.07;23.67;;;12.10;75.20;;;;;;4972243;28;20461;-71
2022/03/13 08:56:16;;;;;;;34.17;25.23;;;12.40;75.20;;;;;;4971627;28;21651;-71
2022/03/13 08:58:43;;;;;;;28.87;26.00;;;12.60;74.60;;;;;;4970448;28;20840;-72
2022/03/13 09:01:10;;;;;;;26.83;24.43;;;12.80;74.20;;;;;;4971685;28;20468;-72
2022/03/13 09:03:38;;;;;;;27.30;24.80;;;13.00;73.30;;;;;;4972354;28;20492;-72
2022/03/13 09:06:05;;;;;;;28.63;26.13;;;13.10;71.90;;;;;;4970951;28;21056;-71
2022/03/13 09:08:32;;;;;;;25.53;23.20;;;12.80;71.20;;;;;;4986570;28;20831;-71
2022/03/13 09:10:58;;;;;;;25.97;23.73;;;13.00;71.80;;;;;;4983260;28;20473;-71
2022/03/13 09:13:27;;;;;;;30.10;23.70;;;13.00;71.60;;;;;;4970903;28;21035;-72
2022/03/13 09:15:54;;;;;;;31.00;25.00;;;13.10;72.80;;;;;;4970808;28;20548;-71
2022/03/13 09:18:21;;;;;;;27.13;24.50;;;13.00;72.60;;;;;;4971698;28;20847;-71
2022/03/13 09:20:48;;;;;;;27.27;24.87;;;13.00;73.70;;;;;;4976849;28;20948;-71
2022/03/13 09:23:14;;;;;;;27.23;24.07;;;12.90;72.40;;;;;;4997338;28;20486;-72
2022/03/13 09:25:41;;;;;;;27.40;24.97;;;13.00;71.70;;;;;;5005133;28;20476;-71
2022/03/13 09:28:08;;;;;;;27.83;25.13;;;13.00;72.20;;;;;;4986901;28;20467;-72
2022/03/13 09:30:37;;;;;;;29.20;25.63;;;13.00;72.40;;;;;;4970386;28;20474;-72
2022/03/13 09:33:05;;;;;;;27.73;25.03;;;13.00;71.70;;;;;;4970575;28;20613;-73
2022/03/13 09:35:32;;;;;;;28.30;24.40;;;13.20;70.50;;;;;;4969916;28;21180;-71
2022/03/13 09:37:59;;;;;;;29.73;26.70;;;13.20;71.20;;;;;;4971119;28;20861;-72
2022/03/13 09:40:27;;;;;;;34.93;26.77;;;13.50;71.30;;;;;;4968081;28;20477;-73
2022/03/13 09:42:55;;;;;;;27.77;25.10;;;13.50;70.20;;;;;;4970417;28;21018;-72
2022/03/13 09:45:22;;;;;;;27.73;25.07;;;13.60;69.40;;;;;;4968814;28;20505;-71
2022/03/13 09:47:52;;;;;;;28.50;25.97;;;13.30;68.30;;;;;;4969347;28;20484;-71
2022/03/13 09:50:20;;;;;;;29.17;24.03;;;13.20;70.00;;;;;;4969966;28;20523;-70
2022/03/13 09:52:46;;;;;;;27.40;24.37;;;13.40;69.90;;;;;;4969080;28;20494;-72
2022/03/13 09:55:14;;;;;;;25.33;22.97;;;13.50;69.80;;;;;;4968864;28;20468;-72
2022/03/13 09:57:42;;;;;;;26.27;23.60;;;13.60;69.70;;;;;;4969338;28;20462;-72
2022/03/13 10:00:12;;;;;;;25.90;23.50;;;13.90;67.70;;;;;;4968836;28;20923;-71
2022/03/13 10:02:39;;;;;;;27.47;24.53;;;14.50;67.60;;;;;;4967500;28;20474;-72
2022/03/13 10:05:11;;;;;;;25.53;23.27;;;15.20;67.50;;;;;;4968870;28;20498;-71
2022/03/13 10:08:01;;;;;;;27.23;23.13;;;16.10;65.50;;;;;;4968374;28;20861;-71
2022/03/13 10:10:29;;;;;;;25.90;23.30;;;17.00;63.80;;;;;;4968341;28;20462;-71
2022/03/13 10:12:56;;;;;;;24.13;22.10;;;17.10;61.40;;;;;;4967812;28;20866;-71
2022/03/13 10:15:25;;;;;;;25.57;23.13;;;17.00;60.60;;;;;;4967879;28;20469;-71
2022/03/13 10:17:52;;;;;;;27.53;24.83;;;17.60;61.40;;;;;;4967684;28;20504;-71
2022/03/13 10:20:23;;;;;;;25.47;22.93;;;17.30;59.20;;;;;;4979416;28;20972;-71
2022/03/13 10:22:55;;;;;;;25.00;22.50;;;17.20;59.50;;;;;;5005155;28;20553;-71
2022/03/13 10:25:33;;;;;;;28.20;24.33;;;17.80;59.70;;;;;;4999655;28;20468;-71
2022/03/13 10:28:12;;;;;;;25.47;22.97;;;18.20;58.10;;;;;;4989277;28;20477;-71
2022/03/13 10:30:39;;;;;;;27.97;24.57;;;17.90;58.10;;;;;;4970053;28;20494;-71
2022/03/13 10:33:06;;;;;;;27.20;24.63;;;17.30;58.00;;;;;;4965634;28;20492;-71
2022/03/13 10:35:34;;;;;;;25.27;22.70;;;17.00;58.40;;;;;;4968688;28;20460;-71
2022/03/13 10:38:02;;;;;;;25.67;23.37;;;18.00;60.00;;;;;;4964403;28;20490;-71
2022/03/13 10:40:36;;;;;;;25.87;23.27;;;18.70;58.50;;;;;;4966332;28;21037;-71
2022/03/13 10:43:04;;;;;;;27.47;23.37;;;19.70;58.30;;;;;;4967081;28;20906;-71
2022/03/13 10:45:36;;;;;;;26.60;23.80;;;19.90;57.20;;;;;;4964228;28;20469;-71
2022/03/13 10:48:22;;;;;;;30.90;24.60;;;20.50;56.80;;;;;;4966342;28;20467;-71
2022/03/13 10:50:52;;;;;;;25.43;23.17;;;21.00;55.50;;;;;;4966974;28;20959;-71
2022/03/13 10:53:20;;;;;;;25.57;23.37;;;20.70;54.10;;;;;;4966850;28;20521;-72
2022/03/13 10:56:04;;;;;;;25.80;23.50;;;20.90;55.10;;;;;;4966448;28;20545;-71
2022/03/13 10:58:31;;;;;;;26.00;23.43;;;20.80;52.60;;;;;;4994202;28;20505;-71
2022/03/13 11:01:04;;;;;;;29.77;24.63;;;20.90;53.20;;;;;;5002713;28;20548;-72
2022/03/13 11:03:33;;;;;;;27.50;24.60;;;21.40;52.70;;;;;;4998867;28;20457;-72
2022/03/13 11:06:02;;;;;;;25.83;23.50;;;21.70;52.90;;;;;;4979726;28;20864;-72
2022/03/13 11:08:28;;;;;;;27.63;24.77;;;21.60;52.70;;;;;;4966046;28;20489;-72
2022/03/13 11:10:56;;;;;;;24.43;22.43;;;21.50;52.80;;;;;;4966287;28;20992;-72
2022/03/13 11:13:27;;;;;;;27.73;25.00;;;21.70;52.20;;;;;;4966223;28;20530;-71
2022/03/13 11:15:56;;;;;;;26.37;23.73;;;21.60;51.70;;;;;;4966031;28;20474;-72
2022/03/13 11:18:29;;;;;;;29.33;23.80;;;22.00;50.80;;;;;;4965518;28;20473;-72
2022/03/13 11:20:56;;;;;;;28.60;24.70;;;22.10;50.30;;;;;;4965320;28;20469;-73
2022/03/13 11:23:25;;;;;;;28.53;25.53;;;22.70;50.30;;;;;;4965325;28;20647;-73
2022/03/13 11:25:55;;;;;;;26.80;24.33;;;23.30;49.10;;;;;;4960925;28;20921;-73
2022/03/13 11:28:22;;;;;;;33.73;25.43;;;23.10;47.60;;;;;;4962956;28;20557;-74
2022/03/13 11:30:49;;;;;;;28.80;24.67;;;23.50;47.50;;;;;;4963306;28;20489;-72
2022/03/13 11:33:35;;;;;;;26.87;23.30;;;23.10;47.50;;;;;;4964743;28;20494;-72
2022/03/13 11:36:28;;;;;;;27.40;24.60;;;22.90;46.40;;;;;;4969936;28;20590;-72
2022/03/13 11:38:58;;;;;;;26.97;24.53;;;23.20;48.00;;;;;;4965600;28;20988;-72
2022/03/13 11:41:39;;;;;;;28.20;24.97;;;23.70;47.60;;;;;;4962181;28;22537;-72
2022/03/13 11:44:39;;;;;;;26.80;24.10;;;23.70;45.50;;;;;;4964889;28;20489;-72
2022/03/13 11:47:26;;;;;;;26.60;23.93;;;23.90;46.60;;;;;;4962883;28;20482;-73
2022/03/13 11:49:53;;;;;;;27.33;23.83;;;24.80;46.00;;;;;;4962998;28;20843;-72
2022/03/13 11:52:30;;;;;;;34.73;23.00;;;24.60;46.20;;;;;;4979109;28;20468;-74
2022/03/13 11:55:00;;;;;;;25.60;23.37;;;24.90;45.90;;;;;;4989603;28;20550;-72
2022/03/13 11:57:29;;;;;;;27.27;24.80;;;24.40;44.50;;;;;;4959431;28;20529;-72
2022/03/13 12:00:30;;;;;;;26.17;23.80;;;24.70;45.50;;;;;;4960928;28;21160;-72
2022/03/13 12:03:14;;;;;;;26.40;24.10;;;23.60;44.90;;;;;;4961182;28;20852;-73
2022/03/13 12:05:52;;;;;;;26.87;24.60;;;23.60;45.70;;;;;;4974459;28;20462;-73
2022/03/13 12:08:23;;;;;;;27.60;24.70;;;23.60;45.90;;;;;;4994440;28;20824;-73
2022/03/13 12:10:52;;;;;;;26.93;24.27;;;23.80;45.20;;;;;;4984618;28;20462;-73
2022/03/13 12:13:21;;;;;;;25.77;23.60;;;23.70;45.20;;;;;;4990062;28;20490;-73
2022/03/13 12:15:48;;;;;;;27.77;25.47;;;23.80;45.70;;;;;;4981017;28;20465;-73
2022/03/13 12:18:18;;;;;;;25.97;23.53;;;24.20;44.80;;;;;;4976677;28;20461;-73
2022/03/13 12:20:46;;;;;;;25.07;22.93;;;23.70;45.50;;;;;;5000302;28;20467;-72
2022/03/13 12:23:26;;;;;;;25.17;22.77;;;23.50;45.90;;;;;;4970595;28;20471;-73
2022/03/13 12:26:11;;;;;;;25.53;22.93;;;23.20;45.90;;;;;;4964590;28;20664;-73
2022/03/13 12:28:39;;;;;;;25.87;23.43;;;22.70;45.80;;;;;;4967042;28;21064;-72
2022/03/13 12:31:06;;;;;;;24.20;22.20;;;22.40;45.80;;;;;;4964183;28;20612;-73
2022/03/13 12:33:33;;;;;;;23.87;21.67;;;22.70;46.10;;;;;;4966743;28;20934;-74
2022/03/13 12:36:01;;;;;;;23.67;21.77;;;23.40;46.70;;;;;;4967190;28;20911;-73
2022/03/13 12:38:29;;;;;;;26.50;22.60;;;23.60;46.40;;;;;;4965117;28;20526;-74
2022/03/13 12:40:59;;;;;;;24.80;22.70;;;23.80;45.40;;;;;;4967509;28;20468;-73
2022/03/13 12:43:27;;;;;;;25.07;22.53;;;24.20;45.60;;;;;;4963340;28;20470;-73